createdAt,value
2022-09-23T00:02:47.886Z,94.02
2022-09-23T00:06:01.517Z,93.91
2022-09-23T00:09:04.183Z,93.99
2022-09-23T00:12:08.990Z,94.09
2022-09-23T00:15:11.924Z,94.02
2022-09-23T00:18:14.425Z,94.31
2022-09-23T00:21:18.074Z,94.88
2022-09-23T00:24:20.899Z,94.94
2022-09-23T00:27:23.425Z,94.74
2022-09-23T00:30:25.969Z,95.02
2022-09-23T00:33:29.988Z,95.39
2022-09-23T00:36:35.441Z,95.40
2022-09-23T00:39:37.890Z,95.16
2022-09-23T00:42:50.037Z,95.42
2022-09-23T00:45:52.606Z,95.29
2022-09-23T00:49:11.628Z,95.42
2022-09-23T00:52:18.123Z,95.00
2022-09-23T00:55:27.988Z,95.42
2022-09-23T00:58:35.714Z,95.65
2022-09-23T01:01:38.835Z,95.32
2022-09-23T01:04:41.471Z,94.76
2022-09-23T01:07:45.985Z,94.63
2022-09-23T01:10:55.177Z,94.68
2022-09-23T01:14:16.819Z,95.05
2022-09-23T01:17:36.217Z,95.43
2022-09-23T01:20:59.497Z,95.95
2022-09-23T01:24:23.755Z,95.76
2022-09-23T01:27:54.864Z,95.76
2022-09-23T01:31:16.655Z,96.04
2022-09-23T01:34:26.296Z,96.00
2022-09-23T01:37:41.167Z,95.73
2022-09-23T01:41:10.401Z,96.04
2022-09-23T01:44:29.614Z,96.03
2022-09-23T01:47:41.455Z,95.74
2022-09-23T01:50:56.944Z,95.93
2022-09-23T01:54:16.051Z,96.53
2022-09-23T01:57:44.055Z,96.81
2022-09-23T02:01:00.418Z,96.60
2022-09-23T02:04:10.374Z,96.13
2022-09-23T02:07:28.737Z,95.77
2022-09-23T02:10:36.170Z,95.90
2022-09-23T02:13:50.734Z,96.49
2022-09-23T02:16:56.248Z,96.60
2022-09-23T02:20:02.363Z,96.60
2022-09-23T02:23:13.188Z,96.73
2022-09-23T02:26:21.833Z,97.07
2022-09-23T02:29:40.395Z,97.17
2022-09-23T02:32:58.991Z,96.76
2022-09-23T02:36:08.124Z,96.90
2022-09-23T02:39:14.284Z,96.72
2022-09-23T02:42:21.911Z,96.93
2022-09-23T02:45:24.411Z,96.57
2022-09-23T02:48:34.558Z,96.32
2022-09-23T02:51:38.341Z,96.60
2022-09-23T02:54:40.975Z,96.75
2022-09-23T02:57:43.591Z,96.74
2022-09-23T03:01:13.143Z,96.86
2022-09-23T03:04:36.015Z,96.98
2022-09-23T03:08:00.208Z,97.27
2022-09-23T03:11:11.399Z,97.61
2022-09-23T03:14:23.154Z,97.88
2022-09-23T03:17:44.793Z,97.72
2022-09-23T03:20:53.940Z,97.98
2022-09-23T03:24:00.176Z,97.83
2022-09-23T03:27:05.767Z,97.63
2022-09-23T03:30:09.010Z,97.35
2022-09-23T03:33:13.228Z,97.44
2022-09-23T03:36:37.887Z,97.73
2022-09-23T03:39:44.500Z,97.68
2022-09-23T03:42:50.264Z,98.02
2022-09-23T03:45:57.568Z,97.56
2022-09-23T03:49:09.558Z,97.86
2022-09-23T03:52:11.995Z,97.85
2022-09-23T03:55:16.479Z,97.52
2022-09-23T03:58:18.884Z,97.64
2022-09-23T04:01:24.661Z,97.19
2022-09-23T04:04:32.519Z,96.76
2022-09-23T04:07:39.719Z,97.05
2022-09-23T04:10:42.362Z,96.92
2022-09-23T04:13:44.839Z,97.10
2022-09-23T04:16:48.300Z,97.37
2022-09-23T04:19:50.845Z,97.42
2022-09-23T04:22:53.215Z,97.59
2022-09-23T04:25:55.810Z,96.97
2022-09-23T04:28:58.657Z,97.12
2022-09-23T04:32:01.358Z,97.19
2022-09-23T04:35:04.697Z,97.51
2022-09-23T04:38:07.450Z,97.68
2022-09-23T04:41:10.019Z,97.81
2022-09-23T04:44:16.016Z,97.82
2022-09-23T04:47:19.474Z,97.79
2022-09-23T04:50:21.976Z,98.27
2022-09-23T04:53:24.480Z,98.09
2022-09-23T04:56:29.288Z,97.73
2022-09-23T04:59:31.892Z,97.94
2022-09-23T05:02:36.813Z,97.97
2022-09-23T05:05:39.368Z,98.18
2022-09-23T05:08:46.375Z,98.16
2022-09-23T05:11:48.986Z,98.05
2022-09-23T05:14:51.427Z,98.22
2022-09-23T05:17:58.164Z,98.13
2022-09-23T05:21:01.267Z,98.34
2022-09-23T05:24:04.303Z,98.28
2022-09-23T05:27:07.895Z,98.87
2022-09-23T05:30:11.760Z,99.35
2022-09-23T05:33:14.385Z,99.40
2022-09-23T05:36:20.743Z,99.69
2022-09-23T05:39:24.055Z,99.79
2022-09-23T05:42:26.685Z,100.00
2022-09-23T05:45:29.783Z,100.00
2022-09-23T05:48:33.611Z,100.00
2022-09-23T05:51:36.151Z,100.00
2022-09-23T05:54:38.695Z,100.00
2022-09-23T05:57:41.148Z,100.00
2022-09-23T06:00:44.291Z,100.00
2022-09-23T06:03:48.373Z,100.00
2022-09-23T06:06:50.985Z,100.00
2022-09-23T06:09:54.092Z,100.00
2022-09-23T06:12:57.171Z,100.00
2022-09-23T06:15:59.863Z,100.00
2022-09-23T06:19:06.710Z,100.00
2022-09-23T06:22:10.975Z,99.97
2022-09-23T06:25:13.615Z,99.29
2022-09-23T06:28:16.173Z,99.11
2022-09-23T06:31:21.845Z,98.03
2022-09-23T06:34:24.467Z,97.76
2022-09-23T06:37:26.933Z,97.25
2022-09-23T06:40:31.286Z,96.03
2022-09-23T06:43:34.141Z,95.23
2022-09-23T06:46:38.226Z,94.87
2022-09-23T06:49:41.296Z,94.90
2022-09-23T06:52:51.224Z,94.82
2022-09-23T06:56:07.740Z,93.38
2022-09-23T06:59:13.208Z,92.80
2022-09-23T07:02:16.089Z,91.91
2022-09-23T07:05:18.647Z,91.04
2022-09-23T07:08:21.502Z,91.10
2022-09-23T07:11:23.963Z,90.17
2022-09-23T07:14:30.001Z,89.90
2022-09-23T07:17:32.589Z,88.46
2022-09-23T07:20:38.528Z,88.29
2022-09-23T07:23:42.529Z,87.93
2022-09-23T07:26:49.075Z,86.51
2022-09-23T07:29:52.203Z,85.52
2022-09-23T07:32:54.840Z,84.97
2022-09-23T07:35:57.631Z,84.90
2022-09-23T07:39:03.697Z,82.71
2022-09-23T07:42:06.828Z,82.67
2022-09-23T07:45:09.527Z,82.75
2022-09-23T07:48:12.124Z,82.37
2022-09-23T07:51:21.180Z,82.19
2022-09-23T07:54:25.653Z,80.62
2022-09-23T07:57:28.130Z,80.34
2022-09-23T08:00:30.860Z,77.81
2022-09-23T08:03:33.780Z,77.77
2022-09-23T08:06:40.531Z,77.45
2022-09-23T08:09:44.157Z,75.66
2022-09-23T08:12:47.928Z,75.80
2022-09-23T08:15:55.198Z,75.53
2022-09-23T08:18:58.114Z,72.67
2022-09-23T08:22:00.675Z,72.96
2022-09-23T08:25:22.111Z,71.94
2022-09-23T08:28:26.195Z,71.07
2022-09-23T08:31:28.798Z,69.42
2022-09-23T08:34:31.262Z,67.57
2022-09-23T08:37:33.763Z,69.65
2022-09-23T08:40:41.559Z,69.19
2022-09-23T08:43:49.166Z,68.78
2022-09-23T08:47:06.621Z,66.55
2022-09-23T08:50:16.356Z,67.19
2022-09-23T08:53:30.215Z,66.28
2022-09-23T08:56:35.405Z,65.91
2022-09-23T08:59:43.246Z,66.21
2022-09-23T09:02:45.924Z,64.16
2022-09-23T09:05:54.171Z,62.78
2022-09-23T09:09:02.234Z,63.87
2022-09-23T09:12:38.488Z,62.44
2022-09-23T09:15:50.205Z,61.26
2022-09-23T09:18:55.263Z,62.67
2022-09-23T09:21:58.052Z,61.83
2022-09-23T09:25:10.120Z,60.78
2022-09-23T09:28:20.521Z,58.31
2022-09-23T09:31:36.323Z,58.68
2022-09-23T09:34:54.979Z,57.43
2022-09-23T09:37:57.494Z,57.98
2022-09-23T09:41:02.260Z,56.80
2022-09-23T09:44:16.357Z,57.17
2022-09-23T09:47:48.429Z,56.58
2022-09-23T09:50:52.343Z,54.60
2022-09-23T09:53:57.012Z,53.47
2022-09-23T09:57:04.973Z,53.46
2022-09-23T10:00:35.789Z,51.49
2022-09-23T10:03:40.108Z,49.69
2022-09-23T10:06:42.766Z,52.84
2022-09-23T10:09:50.463Z,50.98
2022-09-23T10:12:53.005Z,50.94
2022-09-23T10:15:57.004Z,50.38
2022-09-23T10:19:00.897Z,49.30
2022-09-23T10:22:06.426Z,48.76
2022-09-23T10:25:15.692Z,49.06
2022-09-23T10:28:51.495Z,47.92
2022-09-23T10:32:21.049Z,48.12
2022-09-23T10:35:25.331Z,46.01
2022-09-23T10:38:27.998Z,46.01
2022-09-23T10:42:00.197Z,43.77
2022-09-23T10:45:41.055Z,46.37
2022-09-23T10:49:00.043Z,44.65
2022-09-23T10:52:17.276Z,44.61
2022-09-23T10:55:32.186Z,43.34
2022-09-23T10:58:53.518Z,41.94
2022-09-23T11:02:23.868Z,41.41
2022-09-23T11:05:41.789Z,42.16
2022-09-23T11:09:15.781Z,41.60
2022-09-23T11:12:27.481Z,40.36
2022-09-23T11:15:41.238Z,40.17
2022-09-23T11:18:51.154Z,39.31
2022-09-23T11:22:15.990Z,38.44
2022-09-23T11:25:31.371Z,39.83
2022-09-23T11:28:56.098Z,37.82
2022-09-23T11:32:27.723Z,34.48
2022-09-23T11:35:41.785Z,36.43
2022-09-23T11:38:46.815Z,35.58
2022-09-23T11:41:56.949Z,34.77
2022-09-23T11:45:16.341Z,35.85
2022-09-23T11:48:26.114Z,32.62
2022-09-23T11:51:42.601Z,37.56
2022-09-23T11:55:02.064Z,40.63
2022-09-23T11:58:24.870Z,39.75
2022-09-23T12:01:37.882Z,41.39
2022-09-23T12:04:56.516Z,43.14
2022-09-23T12:08:15.888Z,42.94
2022-09-23T12:11:38.033Z,39.75
2022-09-23T12:14:50.280Z,36.43
2022-09-23T12:18:01.639Z,35.04
2022-09-23T12:21:18.294Z,32.25
2022-09-23T12:24:33.032Z,32.62
2022-09-23T12:27:39.390Z,30.98
2022-09-23T12:30:42.435Z,33.67
2022-09-23T12:33:52.888Z,31.58
2022-09-23T12:37:02.880Z,30.72
2022-09-23T12:40:28.495Z,31.68
2022-09-23T12:43:35.690Z,32.44
2022-09-23T12:46:38.953Z,31.04
2022-09-23T12:49:42.517Z,30.36
2022-09-23T12:52:45.040Z,29.96
2022-09-23T12:55:51.770Z,28.80
2022-09-23T12:59:09.812Z,32.30
2022-09-23T13:02:27.840Z,28.86
2022-09-23T13:05:48.816Z,31.39
2022-09-23T13:08:52.558Z,34.76
2022-09-23T13:12:05.514Z,34.44
2022-09-23T13:15:25.826Z,35.33
2022-09-23T13:18:48.291Z,33.84
2022-09-23T13:22:09.083Z,30.54
2022-09-23T13:25:41.215Z,32.47
2022-09-23T13:28:54.161Z,32.70
2022-09-23T13:32:00.294Z,29.99
2022-09-23T13:35:02.976Z,34.48
2022-09-23T13:38:19.339Z,34.37
2022-09-23T13:41:28.852Z,28.73
2022-09-23T13:44:31.438Z,27.67
2022-09-23T13:47:35.759Z,28.10
2022-09-23T13:50:41.097Z,27.48
2022-09-23T13:53:52.099Z,25.05
2022-09-23T13:56:56.649Z,24.41
2022-09-23T14:00:21.062Z,27.55
2022-09-23T14:03:26.000Z,26.52
2022-09-23T14:06:32.086Z,26.46
2022-09-23T14:09:36.526Z,26.53
2022-09-23T14:12:39.663Z,26.91
2022-09-23T14:15:42.219Z,27.07
2022-09-23T14:18:47.033Z,29.09
2022-09-23T14:21:54.339Z,28.26
2022-09-23T14:24:57.585Z,31.14
2022-09-23T14:28:00.667Z,30.55
2022-09-23T14:31:03.303Z,29.22
2022-09-23T14:34:06.760Z,26.71
2022-09-23T14:37:51.529Z,26.53
2022-09-23T14:41:16.950Z,25.81
2022-09-23T14:44:22.876Z,25.22
2022-09-23T14:47:25.737Z,23.82
2022-09-23T14:50:48.708Z,23.74
2022-09-23T14:53:51.264Z,24.67
2022-09-23T14:56:54.766Z,24.22
2022-09-23T15:00:06.824Z,24.15
2022-09-23T15:03:15.704Z,23.87
2022-09-23T15:06:18.532Z,24.11
2022-09-23T15:09:23.981Z,23.77
2022-09-23T15:12:27.745Z,23.81
2022-09-23T15:15:31.261Z,23.16
2022-09-23T15:18:36.272Z,23.70
2022-09-23T15:21:44.261Z,24.56
2022-09-23T15:24:47.149Z,24.78
2022-09-23T15:28:03.142Z,24.70
2022-09-23T15:31:06.301Z,24.41
2022-09-23T15:34:11.005Z,24.98
2022-09-23T15:37:13.654Z,24.81
2022-09-23T15:40:22.864Z,26.11
2022-09-23T15:43:27.270Z,26.08
2022-09-23T15:46:30.579Z,26.48
2022-09-23T15:49:36.379Z,26.50
2022-09-23T15:52:40.071Z,27.47
2022-09-23T15:55:42.882Z,28.17
2022-09-23T15:58:45.425Z,29.28
2022-09-23T16:01:48.270Z,30.28
2022-09-23T16:04:51.139Z,30.34
2022-09-23T16:07:54.011Z,32.07
2022-09-23T16:10:56.733Z,32.74
2022-09-23T16:14:00.958Z,35.89
2022-09-23T16:17:03.714Z,38.60
2022-09-23T16:20:06.797Z,40.65
2022-09-23T16:23:37.661Z,42.92
2022-09-23T16:26:41.161Z,44.64
2022-09-23T16:29:43.733Z,46.11
2022-09-23T16:32:46.326Z,47.98
2022-09-23T16:35:50.225Z,49.42
2022-09-23T16:38:55.640Z,50.62
2022-09-23T16:41:58.726Z,54.06
2022-09-23T16:45:03.148Z,53.90
2022-09-23T16:48:06.377Z,55.39
2022-09-23T16:51:14.995Z,56.53
2022-09-23T16:54:20.332Z,59.12
2022-09-23T16:57:33.835Z,58.65
2022-09-23T17:01:21.186Z,59.32
2022-09-23T17:05:09.329Z,60.55
2022-09-23T17:08:37.526Z,61.66
2022-09-23T17:12:25.784Z,62.25
2022-09-23T17:16:02.849Z,65.41
2022-09-23T17:20:02.332Z,65.28
2022-09-23T17:23:34.886Z,64.82
2022-09-23T17:26:54.934Z,64.88
2022-09-23T17:30:00.499Z,68.63
2022-09-23T17:33:03.275Z,68.01
2022-09-23T17:36:08.047Z,66.81
2022-09-23T17:39:10.897Z,67.89
2022-09-23T17:42:14.749Z,68.62
2022-09-23T17:45:17.309Z,69.29
2022-09-23T17:48:21.703Z,71.04
2022-09-23T17:51:25.345Z,71.27
2022-09-23T17:54:28.091Z,71.45
2022-09-23T17:57:30.657Z,72.15
2022-09-23T18:00:33.365Z,73.76
2022-09-23T18:03:36.016Z,74.41
2022-09-23T18:06:38.747Z,75.38
2022-09-23T18:09:44.576Z,74.84
2022-09-23T18:12:47.262Z,75.30
2022-09-23T18:15:50.554Z,74.73
2022-09-23T18:18:59.202Z,75.11
2022-09-23T18:22:01.884Z,77.31
2022-09-23T18:25:22.759Z,76.79
2022-09-23T18:28:34.018Z,77.00
2022-09-23T18:31:38.688Z,77.80
2022-09-23T18:34:41.421Z,78.10
2022-09-23T18:37:44.025Z,78.08
2022-09-23T18:40:56.209Z,79.20
2022-09-23T18:43:59.006Z,79.12
2022-09-23T18:47:03.565Z,79.36
2022-09-23T18:50:26.105Z,80.62
2022-09-23T18:53:28.699Z,80.32
2022-09-23T18:56:37.263Z,80.64
2022-09-23T18:59:40.526Z,80.98
2022-09-23T19:02:46.493Z,80.86
2022-09-23T19:05:49.739Z,81.42
2022-09-23T19:08:53.845Z,81.94
2022-09-23T19:11:56.594Z,81.12
2022-09-23T19:14:59.110Z,82.17
2022-09-23T19:18:02.329Z,82.37
2022-09-23T19:21:12.167Z,82.42
2022-09-23T19:24:19.953Z,82.64
2022-09-23T19:27:23.300Z,82.24
2022-09-23T19:30:26.071Z,84.11
2022-09-23T19:33:28.899Z,83.48
2022-09-23T19:36:37.895Z,83.65
2022-09-23T19:39:41.059Z,84.09
2022-09-23T19:42:43.663Z,84.22
2022-09-23T19:45:53.700Z,84.38
2022-09-23T19:48:57.394Z,84.49
2022-09-23T19:52:00.497Z,84.54
2022-09-23T19:55:03.120Z,84.33
2022-09-23T19:58:05.751Z,85.11
2022-09-23T20:01:08.615Z,85.59
2022-09-23T20:04:12.483Z,85.03
2022-09-23T20:07:19.377Z,85.95
2022-09-23T20:10:22.908Z,85.23
2022-09-23T20:13:25.562Z,85.81
2022-09-23T20:16:30.111Z,86.36
2022-09-23T20:19:32.774Z,86.28
2022-09-23T20:22:35.411Z,86.82
2022-09-23T20:25:56.717Z,86.19
2022-09-23T20:29:02.506Z,86.29
2022-09-23T20:32:05.414Z,86.53
2022-09-23T20:35:08.374Z,86.95
2022-09-23T20:38:11.147Z,87.49
2022-09-23T20:41:23.264Z,86.64
2022-09-23T20:44:25.940Z,86.54
2022-09-23T20:47:28.470Z,87.44
2022-09-23T20:50:31.113Z,87.77
2022-09-23T20:53:37.335Z,87.95
2022-09-23T20:56:40.225Z,87.65
2022-09-23T20:59:43.683Z,87.82
2022-09-23T21:02:46.296Z,88.32
2022-09-23T21:05:49.942Z,88.15
2022-09-23T21:08:53.634Z,87.49
2022-09-23T21:11:56.111Z,88.51
2022-09-23T21:14:58.757Z,88.74
2022-09-23T21:18:01.253Z,88.17
2022-09-23T21:21:04.860Z,88.84
2022-09-23T21:24:36.158Z,88.87
2022-09-23T21:27:30.743Z,88.56
2022-09-23T21:30:33.254Z,88.78
2022-09-23T21:33:39.053Z,88.27
2022-09-23T21:36:43.256Z,88.80
2022-09-23T21:40:05.745Z,89.63
2022-09-23T21:43:08.377Z,89.93
2022-09-23T21:46:15.658Z,90.14
2022-09-23T21:49:18.221Z,89.67
2022-09-23T21:52:20.749Z,89.44
2022-09-23T21:55:25.467Z,90.15
2022-09-23T21:58:29.239Z,89.10
2022-09-23T22:01:35.215Z,89.71
2022-09-23T22:04:37.965Z,89.97
2022-09-23T22:07:40.557Z,89.93
2022-09-23T22:10:43.130Z,89.43
2022-09-23T22:13:45.690Z,89.67
2022-09-23T22:16:48.316Z,89.81
2022-09-23T22:19:51.333Z,90.37
2022-09-23T22:22:54.437Z,90.08
2022-09-23T22:26:02.279Z,90.30
2022-09-23T22:29:26.595Z,90.48
2022-09-23T22:32:41.277Z,91.18
2022-09-23T22:35:43.850Z,91.51
2022-09-23T22:38:46.310Z,91.17
2022-09-23T22:41:50.885Z,91.68
2022-09-23T22:44:55.645Z,91.28
2022-09-23T22:47:58.205Z,91.38
2022-09-23T22:51:04.513Z,91.00
2022-09-23T22:54:07.474Z,91.28
2022-09-23T22:57:09.979Z,90.90
2022-09-23T23:00:13.163Z,91.23
2022-09-23T23:03:20.699Z,91.55
2022-09-23T23:06:23.254Z,91.65
2022-09-23T23:09:26.176Z,91.65
2022-09-23T23:12:34.711Z,91.95
2022-09-23T23:15:40.458Z,92.18
2022-09-23T23:18:43.554Z,92.20
2022-09-23T23:21:46.135Z,92.04
2022-09-23T23:24:48.635Z,91.91
2022-09-23T23:27:51.150Z,92.17
2022-09-23T23:30:53.669Z,91.90
2022-09-23T23:33:56.207Z,92.36
2022-09-23T23:36:58.696Z,91.94
2022-09-23T23:40:03.357Z,92.48
2022-09-23T23:43:05.906Z,92.51
2022-09-23T23:46:08.875Z,92.53
2022-09-23T23:49:11.514Z,92.53
2022-09-23T23:52:14.035Z,92.64
2022-09-23T23:55:17.118Z,92.54
2022-09-23T23:58:19.633Z,92.49
